sensor_id;sensor_type;location;lat;lon;timestamp;P1;durP1;ratioP1;P2;durP2;ratioP2
41927;SDS011;27616;51.420;6.788;2022-07-17T00:01:50;3.78;;;1.58;;
41927;SDS011;27616;51.420;6.788;2022-07-17T00:04:17;5.65;;;1.30;;
41927;SDS011;27616;51.420;6.788;2022-07-17T00:06:43;3.17;;;1.00;;
41927;SDS011;27616;51.420;6.788;2022-07-17T00:09:09;4.63;;;1.30;;
41927;SDS011;27616;51.420;6.788;2022-07-17T00:11:35;7.38;;;1.70;;
41927;SDS011;27616;51.420;6.788;2022-07-17T00:14:01;4.93;;;1.38;;
41927;SDS011;27616;51.420;6.788;2022-07-17T00:16:27;4.38;;;1.38;;
41927;SDS011;27616;51.420;6.788;2022-07-17T00:18:53;4.22;;;1.20;;
41927;SDS011;27616;51.420;6.788;2022-07-17T00:21:19;4.90;;;1.70;;
41927;SDS011;27616;51.420;6.788;2022-07-17T00:23:45;14.68;;;1.70;;
41927;SDS011;27616;51.420;6.788;2022-07-17T00:26:12;6.38;;;1.40;;
41927;SDS011;27616;51.420;6.788;2022-07-17T00:28:37;3.75;;;1.40;;
41927;SDS011;27616;51.420;6.788;2022-07-17T00:31:03;3.53;;;1.20;;
41927;SDS011;27616;51.420;6.788;2022-07-17T00:33:29;5.43;;;1.40;;
41927;SDS011;27616;51.420;6.788;2022-07-17T00:35:55;4.50;;;1.70;;
41927;SDS011;27616;51.420;6.788;2022-07-17T00:38:21;4.85;;;1.27;;
41927;SDS011;27616;51.420;6.788;2022-07-17T00:40:47;5.90;;;1.55;;
41927;SDS011;27616;51.420;6.788;2022-07-17T00:43:13;4.28;;;1.40;;
41927;SDS011;27616;51.420;6.788;2022-07-17T00:45:39;7.65;;;1.90;;
41927;SDS011;27616;51.420;6.788;2022-07-17T00:48:06;4.38;;;1.52;;
41927;SDS011;27616;51.420;6.788;2022-07-17T00:50:37;6.57;;;1.58;;
41927;SDS011;27616;51.420;6.788;2022-07-17T00:53:06;2.83;;;1.30;;
41927;SDS011;27616;51.420;6.788;2022-07-17T00:55:32;5.07;;;1.60;;
41927;SDS011;27616;51.420;6.788;2022-07-17T00:58:00;4.90;;;1.50;;
41927;SDS011;27616;51.420;6.788;2022-07-17T01:00:28;6.78;;;1.70;;
41927;SDS011;27616;51.420;6.788;2022-07-17T01:02:54;5.53;;;1.73;;
41927;SDS011;27616;51.420;6.788;2022-07-17T01:05:22;5.97;;;1.63;;
41927;SDS011;27616;51.420;6.788;2022-07-17T01:07:49;6.38;;;1.48;;
41927;SDS011;27616;51.420;6.788;2022-07-17T01:10:16;6.10;;;1.50;;
41927;SDS011;27616;51.420;6.788;2022-07-17T01:12:46;5.15;;;1.60;;
41927;SDS011;27616;51.420;6.788;2022-07-17T01:15:13;5.43;;;1.50;;
41927;SDS011;27616;51.420;6.788;2022-07-17T01:17:40;4.32;;;1.73;;
41927;SDS011;27616;51.420;6.788;2022-07-17T01:20:07;5.10;;;1.60;;
41927;SDS011;27616;51.420;6.788;2022-07-17T01:22:41;5.82;;;1.50;;
41927;SDS011;27616;51.420;6.788;2022-07-17T01:25:12;7.03;;;1.73;;
41927;SDS011;27616;51.420;6.788;2022-07-17T01:27:39;5.97;;;1.65;;
41927;SDS011;27616;51.420;6.788;2022-07-17T01:30:05;4.00;;;1.65;;
41927;SDS011;27616;51.420;6.788;2022-07-17T01:32:33;4.50;;;1.60;;
41927;SDS011;27616;51.420;6.788;2022-07-17T01:35:00;4.93;;;1.40;;
41927;SDS011;27616;51.420;6.788;2022-07-17T01:37:28;6.80;;;1.73;;
41927;SDS011;27616;51.420;6.788;2022-07-17T01:39:54;3.58;;;1.40;;
41927;SDS011;27616;51.420;6.788;2022-07-17T01:42:21;5.82;;;1.80;;
41927;SDS011;27616;51.420;6.788;2022-07-17T01:44:49;5.28;;;1.85;;
41927;SDS011;27616;51.420;6.788;2022-07-17T01:47:16;5.25;;;1.38;;
41927;SDS011;27616;51.420;6.788;2022-07-17T01:49:43;6.80;;;1.55;;
41927;SDS011;27616;51.420;6.788;2022-07-17T01:52:21;6.23;;;1.70;;
41927;SDS011;27616;51.420;6.788;2022-07-17T01:54:48;6.63;;;1.80;;
41927;SDS011;27616;51.420;6.788;2022-07-17T01:57:15;6.43;;;1.80;;
41927;SDS011;27616;51.420;6.788;2022-07-17T01:59:41;6.40;;;1.70;;
41927;SDS011;27616;51.420;6.788;2022-07-17T02:02:08;4.45;;;1.70;;
41927;SDS011;27616;51.420;6.788;2022-07-17T02:04:35;7.10;;;1.67;;
41927;SDS011;27616;51.420;6.788;2022-07-17T02:07:02;6.70;;;1.63;;
41927;SDS011;27616;51.420;6.788;2022-07-17T02:09:28;6.43;;;1.92;;
41927;SDS011;27616;51.420;6.788;2022-07-17T02:11:55;5.50;;;1.70;;
41927;SDS011;27616;51.420;6.788;2022-07-17T02:14:21;4.88;;;1.80;;
41927;SDS011;27616;51.420;6.788;2022-07-17T02:16:47;7.38;;;1.73;;
41927;SDS011;27616;51.420;6.788;2022-07-17T02:19:13;4.68;;;1.60;;
41927;SDS011;27616;51.420;6.788;2022-07-17T02:21:39;5.97;;;1.52;;
41927;SDS011;27616;51.420;6.788;2022-07-17T02:24:05;6.07;;;1.95;;
41927;SDS011;27616;51.420;6.788;2022-07-17T02:26:31;4.00;;;1.38;;
41927;SDS011;27616;51.420;6.788;2022-07-17T02:28:57;6.63;;;1.42;;
41927;SDS011;27616;51.420;6.788;2022-07-17T02:31:23;5.70;;;1.95;;
41927;SDS011;27616;51.420;6.788;2022-07-17T02:33:49;6.95;;;1.40;;
41927;SDS011;27616;51.420;6.788;2022-07-17T02:36:15;5.85;;;1.83;;
41927;SDS011;27616;51.420;6.788;2022-07-17T02:38:41;7.85;;;2.00;;
41927;SDS011;27616;51.420;6.788;2022-07-17T02:41:07;7.93;;;1.85;;
41927;SDS011;27616;51.420;6.788;2022-07-17T02:43:33;6.03;;;1.38;;
41927;SDS011;27616;51.420;6.788;2022-07-17T02:46:00;6.20;;;1.48;;
41927;SDS011;27616;51.420;6.788;2022-07-17T02:48:26;4.13;;;1.48;;
41927;SDS011;27616;51.420;6.788;2022-07-17T02:50:52;5.22;;;1.67;;
41927;SDS011;27616;51.420;6.788;2022-07-17T02:53:18;5.35;;;1.48;;
41927;SDS011;27616;51.420;6.788;2022-07-17T02:55:44;5.65;;;1.85;;
41927;SDS011;27616;51.420;6.788;2022-07-17T02:58:10;5.78;;;1.55;;
41927;SDS011;27616;51.420;6.788;2022-07-17T03:00:36;5.35;;;1.30;;
41927;SDS011;27616;51.420;6.788;2022-07-17T03:03:02;8.30;;;1.77;;
41927;SDS011;27616;51.420;6.788;2022-07-17T03:05:28;7.57;;;2.00;;
41927;SDS011;27616;51.420;6.788;2022-07-17T03:07:54;6.53;;;1.65;;
41927;SDS011;27616;51.420;6.788;2022-07-17T03:10:20;6.25;;;1.85;;
41927;SDS011;27616;51.420;6.788;2022-07-17T03:12:46;8.13;;;1.73;;
41927;SDS011;27616;51.420;6.788;2022-07-17T03:15:12;6.00;;;1.88;;
41927;SDS011;27616;51.420;6.788;2022-07-17T03:17:38;5.93;;;1.90;;
41927;SDS011;27616;51.420;6.788;2022-07-17T03:20:05;6.20;;;2.05;;
41927;SDS011;27616;51.420;6.788;2022-07-17T03:22:32;5.47;;;1.75;;
41927;SDS011;27616;51.420;6.788;2022-07-17T03:24:58;9.27;;;2.00;;
41927;SDS011;27616;51.420;6.788;2022-07-17T03:27:23;6.57;;;1.90;;
41927;SDS011;27616;51.420;6.788;2022-07-17T03:29:49;6.10;;;1.60;;
41927;SDS011;27616;51.420;6.788;2022-07-17T03:32:15;4.47;;;1.88;;
41927;SDS011;27616;51.420;6.788;2022-07-17T03:34:41;6.68;;;1.55;;
41927;SDS011;27616;51.420;6.788;2022-07-17T03:37:07;5.57;;;1.75;;
41927;SDS011;27616;51.420;6.788;2022-07-17T03:39:33;5.57;;;1.45;;
41927;SDS011;27616;51.420;6.788;2022-07-17T03:41:59;5.35;;;1.88;;
41927;SDS011;27616;51.420;6.788;2022-07-17T03:44:26;5.63;;;1.92;;
41927;SDS011;27616;51.420;6.788;2022-07-17T03:46:52;6.22;;;1.90;;
41927;SDS011;27616;51.420;6.788;2022-07-17T03:49:18;5.45;;;1.85;;
41927;SDS011;27616;51.420;6.788;2022-07-17T03:51:44;6.05;;;2.03;;
41927;SDS011;27616;51.420;6.788;2022-07-17T03:54:09;5.57;;;2.08;;
41927;SDS011;27616;51.420;6.788;2022-07-17T03:56:35;7.35;;;1.90;;
41927;SDS011;27616;51.420;6.788;2022-07-17T03:59:01;5.47;;;1.60;;
41927;SDS011;27616;51.420;6.788;2022-07-17T04:01:27;8.23;;;1.90;;
41927;SDS011;27616;51.420;6.788;2022-07-17T04:03:53;6.53;;;1.88;;
41927;SDS011;27616;51.420;6.788;2022-07-17T04:06:19;8.60;;;2.13;;
41927;SDS011;27616;51.420;6.788;2022-07-17T04:08:45;4.32;;;1.65;;
41927;SDS011;27616;51.420;6.788;2022-07-17T04:11:11;6.28;;;1.75;;
41927;SDS011;27616;51.420;6.788;2022-07-17T04:13:37;6.30;;;1.80;;
41927;SDS011;27616;51.420;6.788;2022-07-17T04:16:04;4.75;;;1.70;;
41927;SDS011;27616;51.420;6.788;2022-07-17T04:18:31;5.95;;;2.20;;
41927;SDS011;27616;51.420;6.788;2022-07-17T04:20:59;5.90;;;1.80;;
41927;SDS011;27616;51.420;6.788;2022-07-17T04:23:27;5.97;;;2.20;;
41927;SDS011;27616;51.420;6.788;2022-07-17T04:25:53;6.07;;;2.00;;
41927;SDS011;27616;51.420;6.788;2022-07-17T04:28:19;7.05;;;1.73;;
41927;SDS011;27616;51.420;6.788;2022-07-17T04:30:46;7.68;;;2.22;;
41927;SDS011;27616;51.420;6.788;2022-07-17T04:33:12;4.07;;;1.70;;
41927;SDS011;27616;51.420;6.788;2022-07-17T04:35:38;4.32;;;2.00;;
41927;SDS011;27616;51.420;6.788;2022-07-17T04:38:04;4.57;;;2.05;;
41927;SDS011;27616;51.420;6.788;2022-07-17T04:40:32;4.85;;;1.83;;
41927;SDS011;27616;51.420;6.788;2022-07-17T04:42:58;6.53;;;2.10;;
41927;SDS011;27616;51.420;6.788;2022-07-17T04:45:25;6.95;;;1.90;;
41927;SDS011;27616;51.420;6.788;2022-07-17T04:47:51;6.38;;;1.95;;
41927;SDS011;27616;51.420;6.788;2022-07-17T04:50:17;5.97;;;1.95;;
41927;SDS011;27616;51.420;6.788;2022-07-17T04:52:43;4.32;;;1.40;;
41927;SDS011;27616;51.420;6.788;2022-07-17T04:55:09;6.15;;;1.30;;
41927;SDS011;27616;51.420;6.788;2022-07-17T04:57:35;6.53;;;1.60;;
41927;SDS011;27616;51.420;6.788;2022-07-17T05:00:01;5.60;;;1.70;;
41927;SDS011;27616;51.420;6.788;2022-07-17T05:02:32;8.20;;;2.20;;
41927;SDS011;27616;51.420;6.788;2022-07-17T05:04:58;4.32;;;1.88;;
41927;SDS011;27616;51.420;6.788;2022-07-17T05:07:24;5.53;;;1.92;;
41927;SDS011;27616;51.420;6.788;2022-07-17T05:09:50;6.88;;;2.13;;
41927;SDS011;27616;51.420;6.788;2022-07-17T05:12:16;5.85;;;2.20;;
41927;SDS011;27616;51.420;6.788;2022-07-17T05:14:42;4.63;;;1.60;;
41927;SDS011;27616;51.420;6.788;2022-07-17T05:17:08;5.88;;;2.03;;
41927;SDS011;27616;51.420;6.788;2022-07-17T05:19:34;5.22;;;1.98;;
41927;SDS011;27616;51.420;6.788;2022-07-17T05:22:01;8.70;;;3.60;;
41927;SDS011;27616;51.420;6.788;2022-07-17T05:24:27;7.95;;;2.20;;
41927;SDS011;27616;51.420;6.788;2022-07-17T05:26:53;5.57;;;2.20;;
41927;SDS011;27616;51.420;6.788;2022-07-17T05:29:19;5.60;;;1.90;;
41927;SDS011;27616;51.420;6.788;2022-07-17T05:31:45;4.82;;;1.95;;
41927;SDS011;27616;51.420;6.788;2022-07-17T05:34:11;5.90;;;1.65;;
41927;SDS011;27616;51.420;6.788;2022-07-17T05:36:37;8.32;;;1.90;;
41927;SDS011;27616;51.420;6.788;2022-07-17T05:39:03;6.10;;;1.98;;
41927;SDS011;27616;51.420;6.788;2022-07-17T05:41:29;6.00;;;2.10;;
41927;SDS011;27616;51.420;6.788;2022-07-17T05:43:56;7.05;;;2.10;;
41927;SDS011;27616;51.420;6.788;2022-07-17T05:46:22;7.07;;;2.20;;
41927;SDS011;27616;51.420;6.788;2022-07-17T05:48:47;5.85;;;2.17;;
41927;SDS011;27616;51.420;6.788;2022-07-17T05:51:13;4.55;;;1.95;;
41927;SDS011;27616;51.420;6.788;2022-07-17T05:53:39;5.93;;;1.88;;
41927;SDS011;27616;51.420;6.788;2022-07-17T05:56:05;5.40;;;1.90;;
41927;SDS011;27616;51.420;6.788;2022-07-17T05:58:32;4.85;;;1.88;;
41927;SDS011;27616;51.420;6.788;2022-07-17T06:00:57;7.93;;;1.80;;
41927;SDS011;27616;51.420;6.788;2022-07-17T06:03:23;5.97;;;1.75;;
41927;SDS011;27616;51.420;6.788;2022-07-17T06:05:50;6.90;;;1.70;;
41927;SDS011;27616;51.420;6.788;2022-07-17T06:08:16;7.93;;;1.83;;
41927;SDS011;27616;51.420;6.788;2022-07-17T06:10:42;9.80;;;2.00;;
41927;SDS011;27616;51.420;6.788;2022-07-17T06:13:07;7.75;;;1.80;;
41927;SDS011;27616;51.420;6.788;2022-07-17T06:15:33;8.90;;;2.10;;
41927;SDS011;27616;51.420;6.788;2022-07-17T06:18:03;4.68;;;2.00;;
41927;SDS011;27616;51.420;6.788;2022-07-17T06:20:29;6.10;;;1.80;;
41927;SDS011;27616;51.420;6.788;2022-07-17T06:22:56;4.72;;;1.73;;
41927;SDS011;27616;51.420;6.788;2022-07-17T06:25:22;7.40;;;1.73;;
41927;SDS011;27616;51.420;6.788;2022-07-17T06:27:48;4.93;;;1.73;;
41927;SDS011;27616;51.420;6.788;2022-07-17T06:30:14;5.80;;;1.83;;
41927;SDS011;27616;51.420;6.788;2022-07-17T06:32:41;5.00;;;1.70;;
41927;SDS011;27616;51.420;6.788;2022-07-17T06:35:08;3.83;;;1.58;;
41927;SDS011;27616;51.420;6.788;2022-07-17T06:37:35;6.28;;;1.70;;
41927;SDS011;27616;51.420;6.788;2022-07-17T06:40:02;4.90;;;1.60;;
41927;SDS011;27616;51.420;6.788;2022-07-17T06:42:28;4.78;;;1.35;;
41927;SDS011;27616;51.420;6.788;2022-07-17T06:44:54;5.68;;;1.55;;
41927;SDS011;27616;51.420;6.788;2022-07-17T06:47:21;3.20;;;1.35;;
41927;SDS011;27616;51.420;6.788;2022-07-17T06:49:47;5.65;;;1.45;;
41927;SDS011;27616;51.420;6.788;2022-07-17T06:52:12;4.88;;;1.50;;
41927;SDS011;27616;51.420;6.788;2022-07-17T06:54:38;7.47;;;1.67;;
41927;SDS011;27616;51.420;6.788;2022-07-17T06:57:04;5.20;;;1.48;;
41927;SDS011;27616;51.420;6.788;2022-07-17T06:59:30;3.38;;;1.30;;
41927;SDS011;27616;51.420;6.788;2022-07-17T07:01:56;5.97;;;1.75;;
41927;SDS011;27616;51.420;6.788;2022-07-17T07:04:22;5.55;;;1.55;;
41927;SDS011;27616;51.420;6.788;2022-07-17T07:06:48;5.47;;;1.75;;
41927;SDS011;27616;51.420;6.788;2022-07-17T07:09:14;5.50;;;1.42;;
41927;SDS011;27616;51.420;6.788;2022-07-17T07:11:40;7.07;;;2.10;;
41927;SDS011;27616;51.420;6.788;2022-07-17T07:14:06;5.40;;;1.75;;
41927;SDS011;27616;51.420;6.788;2022-07-17T07:16:33;5.00;;;1.60;;
41927;SDS011;27616;51.420;6.788;2022-07-17T07:18:59;4.80;;;1.50;;
41927;SDS011;27616;51.420;6.788;2022-07-17T07:21:25;4.90;;;1.52;;
41927;SDS011;27616;51.420;6.788;2022-07-17T07:23:52;5.70;;;1.90;;
41927;SDS011;27616;51.420;6.788;2022-07-17T07:26:18;5.03;;;1.45;;
41927;SDS011;27616;51.420;6.788;2022-07-17T07:28:44;7.47;;;1.75;;
41927;SDS011;27616;51.420;6.788;2022-07-17T07:31:10;5.68;;;1.40;;
41927;SDS011;27616;51.420;6.788;2022-07-17T07:33:37;5.30;;;1.40;;
41927;SDS011;27616;51.420;6.788;2022-07-17T07:36:03;3.60;;;1.38;;
41927;SDS011;27616;51.420;6.788;2022-07-17T07:38:30;7.35;;;1.67;;
41927;SDS011;27616;51.420;6.788;2022-07-17T07:40:56;4.35;;;1.40;;
41927;SDS011;27616;51.420;6.788;2022-07-17T07:43:22;5.15;;;1.58;;
41927;SDS011;27616;51.420;6.788;2022-07-17T07:45:49;4.40;;;1.77;;
41927;SDS011;27616;51.420;6.788;2022-07-17T07:48:15;4.53;;;1.70;;
41927;SDS011;27616;51.420;6.788;2022-07-17T07:50:41;4.57;;;1.80;;
41927;SDS011;27616;51.420;6.788;2022-07-17T07:53:07;7.43;;;1.88;;
41927;SDS011;27616;51.420;6.788;2022-07-17T07:55:33;5.63;;;1.55;;
41927;SDS011;27616;51.420;6.788;2022-07-17T07:58:06;4.53;;;1.63;;
41927;SDS011;27616;51.420;6.788;2022-07-17T08:00:33;5.45;;;1.20;;
41927;SDS011;27616;51.420;6.788;2022-07-17T08:02:59;5.20;;;1.52;;
41927;SDS011;27616;51.420;6.788;2022-07-17T08:05:26;4.90;;;1.42;;
41927;SDS011;27616;51.420;6.788;2022-07-17T08:07:52;5.20;;;1.13;;
41927;SDS011;27616;51.420;6.788;2022-07-17T08:10:18;6.15;;;1.33;;
41927;SDS011;27616;51.420;6.788;2022-07-17T08:12:44;3.80;;;1.20;;
41927;SDS011;27616;51.420;6.788;2022-07-17T08:15:11;4.15;;;1.10;;
41927;SDS011;27616;51.420;6.788;2022-07-17T08:17:37;6.57;;;1.50;;
41927;SDS011;27616;51.420;6.788;2022-07-17T08:20:03;8.32;;;1.70;;
41927;SDS011;27616;51.420;6.788;2022-07-17T08:22:29;7.72;;;1.60;;
41927;SDS011;27616;51.420;6.788;2022-07-17T08:24:55;9.50;;;3.40;;
41927;SDS011;27616;51.420;6.788;2022-07-17T08:27:21;11.82;;;3.40;;
41927;SDS011;27616;51.420;6.788;2022-07-17T08:29:47;9.27;;;3.05;;
41927;SDS011;27616;51.420;6.788;2022-07-17T08:32:13;9.45;;;3.08;;
41927;SDS011;27616;51.420;6.788;2022-07-17T08:34:39;9.68;;;2.38;;
41927;SDS011;27616;51.420;6.788;2022-07-17T08:37:05;8.57;;;2.30;;
41927;SDS011;27616;51.420;6.788;2022-07-17T08:39:31;9.07;;;3.05;;
41927;SDS011;27616;51.420;6.788;2022-07-17T08:41:57;7.50;;;2.90;;
41927;SDS011;27616;51.420;6.788;2022-07-17T08:44:22;8.63;;;3.20;;
41927;SDS011;27616;51.420;6.788;2022-07-17T08:46:48;10.60;;;3.40;;
41927;SDS011;27616;51.420;6.788;2022-07-17T08:49:15;7.45;;;3.40;;
41927;SDS011;27616;51.420;6.788;2022-07-17T08:51:47;5.32;;;2.88;;
41927;SDS011;27616;51.420;6.788;2022-07-17T08:54:13;7.38;;;2.58;;
41927;SDS011;27616;51.420;6.788;2022-07-17T08:56:39;6.22;;;2.13;;
41927;SDS011;27616;51.420;6.788;2022-07-17T08:59:06;6.53;;;2.50;;
41927;SDS011;27616;51.420;6.788;2022-07-17T09:01:32;5.63;;;2.05;;
41927;SDS011;27616;51.420;6.788;2022-07-17T09:03:58;10.20;;;2.97;;
41927;SDS011;27616;51.420;6.788;2022-07-17T09:06:30;7.47;;;2.30;;
41927;SDS011;27616;51.420;6.788;2022-07-17T09:09:07;7.72;;;2.60;;
41927;SDS011;27616;51.420;6.788;2022-07-17T09:14:12;6.28;;;1.80;;
41927;SDS011;27616;51.420;6.788;2022-07-17T09:16:57;6.57;;;2.25;;
41927;SDS011;27616;51.420;6.788;2022-07-17T09:19:30;7.93;;;2.13;;
41927;SDS011;27616;51.420;6.788;2022-07-17T09:22:04;8.88;;;2.60;;
41927;SDS011;27616;51.420;6.788;2022-07-17T09:27:07;6.15;;;2.22;;
41927;SDS011;27616;51.420;6.788;2022-07-17T09:29:34;6.20;;;2.10;;
41927;SDS011;27616;51.420;6.788;2022-07-17T09:32:00;4.70;;;2.22;;
41927;SDS011;27616;51.420;6.788;2022-07-17T09:34:25;10.45;;;3.53;;
41927;SDS011;27616;51.420;6.788;2022-07-17T09:36:58;6.32;;;2.85;;
41927;SDS011;27616;51.420;6.788;2022-07-17T09:39:37;6.60;;;2.35;;
41927;SDS011;27616;51.420;6.788;2022-07-17T09:42:04;5.13;;;2.20;;
41927;SDS011;27616;51.420;6.788;2022-07-17T09:44:31;8.48;;;2.17;;
41927;SDS011;27616;51.420;6.788;2022-07-17T09:46:57;8.88;;;2.55;;
41927;SDS011;27616;51.420;6.788;2022-07-17T09:49:26;9.32;;;2.28;;
41927;SDS011;27616;51.420;6.788;2022-07-17T09:51:53;9.77;;;3.20;;
41927;SDS011;27616;51.420;6.788;2022-07-17T09:54:22;8.80;;;2.60;;
41927;SDS011;27616;51.420;6.788;2022-07-17T09:56:51;6.40;;;2.25;;
41927;SDS011;27616;51.420;6.788;2022-07-17T09:59:23;8.45;;;2.17;;
41927;SDS011;27616;51.420;6.788;2022-07-17T10:01:54;6.25;;;2.53;;
41927;SDS011;27616;51.420;6.788;2022-07-17T10:04:21;9.55;;;2.83;;
41927;SDS011;27616;51.420;6.788;2022-07-17T10:06:47;6.65;;;2.63;;
41927;SDS011;27616;51.420;6.788;2022-07-17T10:09:13;6.57;;;2.50;;
41927;SDS011;27616;51.420;6.788;2022-07-17T10:11:39;11.40;;;3.00;;
41927;SDS011;27616;51.420;6.788;2022-07-17T10:14:11;6.50;;;2.47;;
41927;SDS011;27616;51.420;6.788;2022-07-17T10:16:39;7.75;;;2.72;;
41927;SDS011;27616;51.420;6.788;2022-07-17T10:19:15;9.48;;;2.75;;
41927;SDS011;27616;51.420;6.788;2022-07-17T10:21:58;8.50;;;2.67;;
41927;SDS011;27616;51.420;6.788;2022-07-17T10:24:26;5.53;;;2.13;;
41927;SDS011;27616;51.420;6.788;2022-07-17T10:32:00;6.32;;;2.30;;
41927;SDS011;27616;51.420;6.788;2022-07-17T10:34:48;5.68;;;2.28;;
41927;SDS011;27616;51.420;6.788;2022-07-17T10:37:20;8.63;;;2.88;;
41927;SDS011;27616;51.420;6.788;2022-07-17T10:45:25;9.15;;;2.53;;
41927;SDS011;27616;51.420;6.788;2022-07-17T10:53:01;9.35;;;2.53;;
41927;SDS011;27616;51.420;6.788;2022-07-17T10:55:28;8.55;;;2.72;;
41927;SDS011;27616;51.420;6.788;2022-07-17T10:57:55;10.23;;;2.72;;
41927;SDS011;27616;51.420;6.788;2022-07-17T11:00:21;6.93;;;2.45;;
41927;SDS011;27616;51.420;6.788;2022-07-17T11:02:48;10.43;;;2.72;;
41927;SDS011;27616;51.420;6.788;2022-07-17T11:05:14;7.35;;;2.72;;
41927;SDS011;27616;51.420;6.788;2022-07-17T11:07:48;9.43;;;2.50;;
41927;SDS011;27616;51.420;6.788;2022-07-17T11:10:15;5.35;;;2.17;;
41927;SDS011;27616;51.420;6.788;2022-07-17T11:12:41;8.05;;;2.50;;
41927;SDS011;27616;51.420;6.788;2022-07-17T11:15:07;9.73;;;2.47;;
41927;SDS011;27616;51.420;6.788;2022-07-17T11:17:33;7.63;;;2.53;;
41927;SDS011;27616;51.420;6.788;2022-07-17T11:20:00;7.22;;;2.22;;
41927;SDS011;27616;51.420;6.788;2022-07-17T11:22:28;10.02;;;2.20;;
41927;SDS011;27616;51.420;6.788;2022-07-17T11:24:53;7.38;;;2.50;;
41927;SDS011;27616;51.420;6.788;2022-07-17T11:29:49;6.30;;;2.67;;
41927;SDS011;27616;51.420;6.788;2022-07-17T11:32:16;11.40;;;3.63;;
41927;SDS011;27616;51.420;6.788;2022-07-17T11:34:43;6.78;;;3.00;;
41927;SDS011;27616;51.420;6.788;2022-07-17T11:37:09;7.20;;;2.63;;
41927;SDS011;27616;51.420;6.788;2022-07-17T11:42:34;4.82;;;1.98;;
41927;SDS011;27616;51.420;6.788;2022-07-17T11:45:00;8.10;;;2.58;;
41927;SDS011;27616;51.420;6.788;2022-07-17T11:47:26;8.82;;;2.70;;
41927;SDS011;27616;51.420;6.788;2022-07-17T11:50:06;8.73;;;2.20;;
41927;SDS011;27616;51.420;6.788;2022-07-17T11:52:42;8.00;;;2.70;;
41927;SDS011;27616;51.420;6.788;2022-07-17T11:55:10;5.85;;;2.28;;
41927;SDS011;27616;51.420;6.788;2022-07-17T11:58:09;6.63;;;2.17;;
41927;SDS011;27616;51.420;6.788;2022-07-17T12:00:28;9.45;;;3.00;;
41927;SDS011;27616;51.420;6.788;2022-07-17T12:05:50;9.10;;;2.97;;
41927;SDS011;27616;51.420;6.788;2022-07-17T12:08:19;9.00;;;3.00;;
41927;SDS011;27616;51.420;6.788;2022-07-17T12:10:48;8.77;;;3.40;;
41927;SDS011;27616;51.420;6.788;2022-07-17T12:13:43;9.68;;;2.55;;
41927;SDS011;27616;51.420;6.788;2022-07-17T12:16:55;7.45;;;3.15;;
41927;SDS011;27616;51.420;6.788;2022-07-17T12:19:24;7.00;;;2.95;;
41927;SDS011;27616;51.420;6.788;2022-07-17T12:21:51;7.32;;;2.67;;
41927;SDS011;27616;51.420;6.788;2022-07-17T12:24:42;9.00;;;2.70;;
41927;SDS011;27616;51.420;6.788;2022-07-17T12:27:10;7.32;;;2.40;;
41927;SDS011;27616;51.420;6.788;2022-07-17T12:29:38;8.35;;;2.50;;
41927;SDS011;27616;51.420;6.788;2022-07-17T12:32:09;9.00;;;2.80;;
41927;SDS011;27616;51.420;6.788;2022-07-17T12:34:39;7.15;;;2.72;;
41927;SDS011;27616;51.420;6.788;2022-07-17T12:39:38;10.63;;;2.65;;
41927;SDS011;27616;51.420;6.788;2022-07-17T12:42:05;9.13;;;3.13;;
41927;SDS011;27616;51.420;6.788;2022-07-17T12:44:31;9.68;;;2.88;;
41927;SDS011;27616;51.420;6.788;2022-07-17T12:46:57;7.68;;;2.78;;
41927;SDS011;27616;51.420;6.788;2022-07-17T12:49:23;8.35;;;2.80;;
41927;SDS011;27616;51.420;6.788;2022-07-17T12:51:50;10.68;;;3.05;;
41927;SDS011;27616;51.420;6.788;2022-07-17T12:54:16;8.60;;;2.88;;
41927;SDS011;27616;51.420;6.788;2022-07-17T12:56:43;10.85;;;2.90;;
41927;SDS011;27616;51.420;6.788;2022-07-17T12:59:09;9.43;;;3.33;;
41927;SDS011;27616;51.420;6.788;2022-07-17T13:01:35;8.40;;;3.17;;
41927;SDS011;27616;51.420;6.788;2022-07-17T13:04:04;10.15;;;3.08;;
41927;SDS011;27616;51.420;6.788;2022-07-17T13:06:30;6.43;;;2.38;;
41927;SDS011;27616;51.420;6.788;2022-07-17T13:08:58;11.13;;;2.58;;
41927;SDS011;27616;51.420;6.788;2022-07-17T13:14:48;12.23;;;3.08;;
41927;SDS011;27616;51.420;6.788;2022-07-17T13:17:21;6.35;;;2.03;;
41927;SDS011;27616;51.420;6.788;2022-07-17T13:20:04;6.82;;;2.78;;
41927;SDS011;27616;51.420;6.788;2022-07-17T13:22:32;7.57;;;2.47;;
41927;SDS011;27616;51.420;6.788;2022-07-17T13:24:58;9.50;;;2.47;;
41927;SDS011;27616;51.420;6.788;2022-07-17T13:27:24;10.75;;;2.60;;
41927;SDS011;27616;51.420;6.788;2022-07-17T13:29:50;10.35;;;2.75;;
41927;SDS011;27616;51.420;6.788;2022-07-17T13:32:16;5.57;;;2.53;;
41927;SDS011;27616;51.420;6.788;2022-07-17T13:34:42;10.77;;;3.15;;
41927;SDS011;27616;51.420;6.788;2022-07-17T13:37:07;8.40;;;3.20;;
41927;SDS011;27616;51.420;6.788;2022-07-17T13:39:34;8.23;;;3.22;;
41927;SDS011;27616;51.420;6.788;2022-07-17T13:42:00;9.13;;;3.17;;
41927;SDS011;27616;51.420;6.788;2022-07-17T13:44:27;7.25;;;2.75;;
41927;SDS011;27616;51.420;6.788;2022-07-17T13:46:53;7.03;;;3.22;;
41927;SDS011;27616;51.420;6.788;2022-07-17T13:49:19;9.07;;;4.22;;
41927;SDS011;27616;51.420;6.788;2022-07-17T13:51:46;8.13;;;3.50;;
41927;SDS011;27616;51.420;6.788;2022-07-17T13:54:13;7.88;;;3.90;;
41927;SDS011;27616;51.420;6.788;2022-07-17T13:56:38;7.47;;;3.25;;
41927;SDS011;27616;51.420;6.788;2022-07-17T13:59:05;11.25;;;3.25;;
41927;SDS011;27616;51.420;6.788;2022-07-17T14:01:31;7.80;;;3.20;;
41927;SDS011;27616;51.420;6.788;2022-07-17T14:03:57;8.02;;;3.63;;
41927;SDS011;27616;51.420;6.788;2022-07-17T14:06:23;8.80;;;3.22;;
41927;SDS011;27616;51.420;6.788;2022-07-17T14:08:48;6.97;;;3.03;;
41927;SDS011;27616;51.420;6.788;2022-07-17T14:11:14;10.32;;;3.63;;
41927;SDS011;27616;51.420;6.788;2022-07-17T14:13:40;6.72;;;3.00;;
41927;SDS011;27616;51.420;6.788;2022-07-17T14:16:06;7.57;;;2.95;;
41927;SDS011;27616;51.420;6.788;2022-07-17T14:18:32;6.45;;;3.20;;
41927;SDS011;27616;51.420;6.788;2022-07-17T14:20:58;6.10;;;3.78;;
41927;SDS011;27616;51.420;6.788;2022-07-17T14:23:24;5.82;;;3.10;;
41927;SDS011;27616;51.420;6.788;2022-07-17T14:25:51;5.88;;;2.95;;
41927;SDS011;27616;51.420;6.788;2022-07-17T14:28:17;6.47;;;3.13;;
41927;SDS011;27616;51.420;6.788;2022-07-17T14:30:43;8.80;;;3.60;;
41927;SDS011;27616;51.420;6.788;2022-07-17T14:33:09;7.40;;;2.63;;
41927;SDS011;27616;51.420;6.788;2022-07-17T14:35:35;5.93;;;2.80;;
41927;SDS011;27616;51.420;6.788;2022-07-17T14:38:02;5.18;;;2.70;;
41927;SDS011;27616;51.420;6.788;2022-07-17T14:40:31;7.07;;;2.58;;
41927;SDS011;27616;51.420;6.788;2022-07-17T14:42:57;6.82;;;3.08;;
41927;SDS011;27616;51.420;6.788;2022-07-17T14:45:23;7.38;;;2.88;;
41927;SDS011;27616;51.420;6.788;2022-07-17T14:47:49;4.20;;;2.22;;
41927;SDS011;27616;51.420;6.788;2022-07-17T14:50:15;6.82;;;3.03;;
41927;SDS011;27616;51.420;6.788;2022-07-17T14:52:41;5.32;;;2.50;;
41927;SDS011;27616;51.420;6.788;2022-07-17T14:55:07;4.15;;;2.00;;
41927;SDS011;27616;51.420;6.788;2022-07-17T14:57:33;5.80;;;2.85;;
41927;SDS011;27616;51.420;6.788;2022-07-17T14:59:59;6.85;;;3.17;;
41927;SDS011;27616;51.420;6.788;2022-07-17T15:02:25;4.85;;;2.60;;
41927;SDS011;27616;51.420;6.788;2022-07-17T15:04:51;7.32;;;2.80;;
41927;SDS011;27616;51.420;6.788;2022-07-17T15:07:17;4.57;;;2.10;;
41927;SDS011;27616;51.420;6.788;2022-07-17T15:09:43;6.35;;;2.30;;
41927;SDS011;27616;51.420;6.788;2022-07-17T15:12:09;6.35;;;3.00;;
41927;SDS011;27616;51.420;6.788;2022-07-17T15:14:34;5.05;;;2.53;;
41927;SDS011;27616;51.420;6.788;2022-07-17T15:17:00;5.75;;;2.83;;
41927;SDS011;27616;51.420;6.788;2022-07-17T15:19:26;6.20;;;2.50;;
41927;SDS011;27616;51.420;6.788;2022-07-17T15:21:52;4.20;;;1.90;;
41927;SDS011;27616;51.420;6.788;2022-07-17T15:24:18;5.63;;;3.20;;